SME Airport (Lake Cumberland Rgnl) Information

FAA: SME - ICAO: KSME

SME Airport Location

State Kentucky
County Pulaski
City Somerset
SME Airport is 3 miles south of Somerset, KY.
Latitude 37-03-12.9000N
Longitude 084-36-56.3000W
Elevation 927ft

KSME Airport METARs

METAR KSME 301715Z AUTO 26008KT 10SM CLR 12/01 A3009 RMK AO2
Altimeter 30.09"
Temperature 12.0°C (53.6°F)
Wind 260° at 8KT
Clouds Skies are clear.
Visibility 10.0mi
Time observed: 2021-11-30T17:15:00Z

SME Airport Details

Status Operational
Activation August 1952
Ownership Public
Usage Public
Chart CINCINNATI
ATC on-site No
Beacon schedule sunset-sunrise
Beacon color clear green

SME Airport Contacts

Owner SOMERSET-PULASKI COUNTY
Owner address 500 W.O. NEWELL DRIVE, SOMERSET, KY 42501
Owner phone 606-679-7908
Manager GREGORY PRIDDY
Manager address 2000 ASHLAND DRIVE, RUSSELL, KY 41169
Manager phone 606-833-6203

SME Airport (Lake Cumberland Rgnl) Radio Frequencies

SME (Airport) Radio Frequencies

UNICOM 122.8
Common traffic advisory frequency (CTAF) 122.8